UNAA METAR and TAF | Updated Today

UNAA METAR

Abakan Airport

Observation time: 33 min. ago

UNAA 292000Z 21003MPS CAVOK M00/M05 Q1019 R02/290155 NOSIG RMK QFE742

Need help? Read our tutorial on how to read METARs or read the parsed version below.

Abakan Airport (UNAA) METAR

  • Weather conditions on Thu, 29 Sep 2022 20:00:00 +0000 (33 min. ago):
  • Present conditions: Dry
  • Clouds: Clear skies
  • Visibility: Greater than 10 km
  • Wind: 210 degrees at 3 knots
  • Temperature: 0 celsius
  • Dew point: -5 celsius
  • Pressure: 1019 millibars
  • Remarks: QFE742


Useful to know...

UNAA TAF

Abakan Airport

TAF UNAA 291654Z 2918/3018 25003G08MPS 9999 SCT016CB TEMPO 2921/3003 3500 -SHSN
Observation time: 3:39 hr. ago
Need help? Read our tutorial on how to read TAFs or read the parsed version below.

Parsed version of TAF for Abakan Airport (UNAA)

  • From 29 September at 18:00 UTC, to day 30 of the month at 18:00 UTC
  • Clouds: Scattered at 488 meters, cumulonimbus
  • Visibility: Greater than 10 km
  • Wind: 250 degrees at 3
  • Expected to arise temporarily, from 29 September at 21:00 UTC, to day 30 of the month at 03:00 UTC
  • Visibility: 3500 meters
  • Other: Light showers of snow

Airports near UNAA